Terminal Aerodrome Forecast
Issued by NWS

Home | Current Version | Previous Version | Text Only | Print | Product List | Glossary On
Versions: 1 2 3 4 5 6 7 8 9 10 11 12 13 14 15 16 17 18 19 20 21 22 23 24 25 26 27 28 29 30 31 32
000
FTUS44 KFWD 292123 AAB
TAFAFW
TAF AMD
KAFW 292123Z 2921/3018 12007KT P6SM VCTS SCT040CB
      TEMPO 2921/2923 -TSRA BKN040CB
     FM300200 12007KT P6SM SCT100
     FM300500 12007KT P6SM VCTS BKN100CB
      TEMPO 3006/3009 5SM TSRA BKN030CB
     FM301100 13006KT P6SM BKN025
     FM301500 14007KT P6SM SCT100=

USA.gov is the U.S. government's official web portal to all federal, state and local government web resources and services.